sensor_id;sensor_type;location;lat;lon;timestamp;pressure;altitude;pressure_sealevel;temperature;humidity
69751;BME280;57335;52.288;6.056;2023-02-15T00:00:27;102965.34;;;-0.97;100.00
69751;BME280;57335;52.288;6.056;2023-02-15T00:02:54;102962.84;;;-0.98;100.00
69751;BME280;57335;52.288;6.056;2023-02-15T00:05:20;102972.00;;;-0.93;100.00
69751;BME280;57335;52.288;6.056;2023-02-15T00:07:46;102954.53;;;-1.04;100.00
69751;BME280;57335;52.288;6.056;2023-02-15T00:10:13;102965.66;;;-1.03;100.00
69751;BME280;57335;52.288;6.056;2023-02-15T00:12:39;102954.47;;;-1.02;100.00
69751;BME280;57335;52.288;6.056;2023-02-15T00:15:06;102952.53;;;-0.98;100.00
69751;BME280;57335;52.288;6.056;2023-02-15T00:17:32;102966.91;;;-0.94;100.00
69751;BME280;57335;52.288;6.056;2023-02-15T00:19:58;102974.50;;;-0.91;100.00
69751;BME280;57335;52.288;6.056;2023-02-15T00:22:25;102947.56;;;-1.02;100.00
69751;BME280;57335;52.288;6.056;2023-02-15T00:24:52;102949.31;;;-1.02;100.00
69751;BME280;57335;52.288;6.056;2023-02-15T00:27:18;102953.72;;;-1.04;100.00
69751;BME280;57335;52.288;6.056;2023-02-15T00:29:46;102942.81;;;-1.09;100.00
69751;BME280;57335;52.288;6.056;2023-02-15T00:32:12;102968.41;;;-1.06;100.00
69751;BME280;57335;52.288;6.056;2023-02-15T00:34:39;102957.63;;;-1.14;100.00
69751;BME280;57335;52.288;6.056;2023-02-15T00:37:05;102970.22;;;-1.08;100.00
69751;BME280;57335;52.288;6.056;2023-02-15T00:39:31;102957.88;;;-1.19;100.00
69751;BME280;57335;52.288;6.056;2023-02-15T00:41:58;102956.97;;;-1.18;100.00
69751;BME280;57335;52.288;6.056;2023-02-15T00:44:24;102954.41;;;-1.18;100.00
69751;BME280;57335;52.288;6.056;2023-02-15T00:46:51;102955.06;;;-1.14;100.00
69751;BME280;57335;52.288;6.056;2023-02-15T00:49:17;102950.91;;;-1.17;100.00
69751;BME280;57335;52.288;6.056;2023-02-15T00:51:43;102945.06;;;-1.21;100.00
69751;BME280;57335;52.288;6.056;2023-02-15T00:54:10;102960.06;;;-1.11;100.00
69751;BME280;57335;52.288;6.056;2023-02-15T00:56:36;102950.31;;;-1.22;100.00
69751;BME280;57335;52.288;6.056;2023-02-15T00:59:02;102954.41;;;-1.18;100.00
69751;BME280;57335;52.288;6.056;2023-02-15T01:01:29;102963.63;;;-1.14;100.00
69751;BME280;57335;52.288;6.056;2023-02-15T01:03:55;102944.50;;;-1.26;100.00
69751;BME280;57335;52.288;6.056;2023-02-15T01:06:21;102962.88;;;-1.16;100.00
69751;BME280;57335;52.288;6.056;2023-02-15T01:08:48;102944.31;;;-1.23;100.00
69751;BME280;57335;52.288;6.056;2023-02-15T01:11:17;102949.41;;;-1.21;100.00
69751;BME280;57335;52.288;6.056;2023-02-15T01:13:44;102930.41;;;-1.36;100.00
69751;BME280;57335;52.288;6.056;2023-02-15T01:16:10;102938.91;;;-1.34;100.00
69751;BME280;57335;52.288;6.056;2023-02-15T01:18:37;102926.34;;;-1.40;100.00
69751;BME280;57335;52.288;6.056;2023-02-15T01:21:11;102923.06;;;-1.44;100.00
69751;BME280;57335;52.288;6.056;2023-02-15T01:23:38;102904.69;;;-1.53;100.00
69751;BME280;57335;52.288;6.056;2023-02-15T01:26:04;102914.28;;;-1.57;100.00
69751;BME280;57335;52.288;6.056;2023-02-15T01:28:31;102912.66;;;-1.58;100.00
69751;BME280;57335;52.288;6.056;2023-02-15T01:30:57;102919.75;;;-1.63;100.00
69751;BME280;57335;52.288;6.056;2023-02-15T01:33:24;102921.13;;;-1.56;100.00
69751;BME280;57335;52.288;6.056;2023-02-15T01:35:57;102911.97;;;-1.62;100.00
69751;BME280;57335;52.288;6.056;2023-02-15T01:38:25;102914.47;;;-1.60;100.00
69751;BME280;57335;52.288;6.056;2023-02-15T01:40:52;102921.13;;;-1.56;100.00
69751;BME280;57335;52.288;6.056;2023-02-15T01:43:18;102911.53;;;-1.52;100.00
69751;BME280;57335;52.288;6.056;2023-02-15T01:45:47;102909.97;;;-1.56;100.00
69751;BME280;57335;52.288;6.056;2023-02-15T01:48:24;102892.91;;;-1.57;100.00
69751;BME280;57335;52.288;6.056;2023-02-15T01:50:54;102900.16;;;-1.48;100.00
69751;BME280;57335;52.288;6.056;2023-02-15T01:53:39;102891.16;;;-1.57;100.00
69751;BME280;57335;52.288;6.056;2023-02-15T01:56:11;102898.72;;;-1.54;100.00
69751;BME280;57335;52.288;6.056;2023-02-15T01:58:39;102897.06;;;-1.55;100.00
69751;BME280;57335;52.288;6.056;2023-02-15T02:01:07;102893.72;;;-1.57;100.00
69751;BME280;57335;52.288;6.056;2023-02-15T02:03:53;102901.00;;;-1.48;100.00
69751;BME280;57335;52.288;6.056;2023-02-15T02:06:23;102877.41;;;-1.56;100.00
69751;BME280;57335;52.288;6.056;2023-02-15T02:08:52;102877.31;;;-1.54;100.00
69751;BME280;57335;52.288;6.056;2023-02-15T02:11:19;102885.88;;;-1.54;100.00
69751;BME280;57335;52.288;6.056;2023-02-15T02:13:45;102883.31;;;-1.54;100.00
69751;BME280;57335;52.288;6.056;2023-02-15T02:16:20;102886.00;;;-1.57;100.00
69751;BME280;57335;52.288;6.056;2023-02-15T02:18:59;102876.78;;;-1.61;100.00
69751;BME280;57335;52.288;6.056;2023-02-15T02:21:48;102858.66;;;-1.75;100.00
69751;BME280;57335;52.288;6.056;2023-02-15T02:27:32;102876.34;;;-1.69;100.00
69751;BME280;57335;52.288;6.056;2023-02-15T02:30:09;102877.09;;;-1.67;100.00
69751;BME280;57335;52.288;6.056;2023-02-15T02:43:55;102855.84;;;-1.71;100.00
69751;BME280;57335;52.288;6.056;2023-02-15T02:46:39;102847.16;;;-1.68;100.00
69751;BME280;57335;52.288;6.056;2023-02-15T02:49:08;102857.53;;;-1.70;100.00
69751;BME280;57335;52.288;6.056;2023-02-15T02:51:34;102838.22;;;-1.78;100.00
69751;BME280;57335;52.288;6.056;2023-02-15T02:54:01;102862.59;;;-1.68;100.00
69751;BME280;57335;52.288;6.056;2023-02-15T02:56:35;102841.53;;;-1.76;100.00
69751;BME280;57335;52.288;6.056;2023-02-15T02:59:11;102835.66;;;-1.78;100.00
69751;BME280;57335;52.288;6.056;2023-02-15T03:01:46;102849.88;;;-1.71;100.00
69751;BME280;57335;52.288;6.056;2023-02-15T03:04:18;102836.63;;;-1.81;100.00
69751;BME280;57335;52.288;6.056;2023-02-15T03:06:49;102832.50;;;-1.84;100.00
69751;BME280;57335;52.288;6.056;2023-02-15T03:09:39;102844.28;;;-1.79;100.00
69751;BME280;57335;52.288;6.056;2023-02-15T03:12:08;102817.44;;;-1.91;100.00
69751;BME280;57335;52.288;6.056;2023-02-15T03:14:38;102820.19;;;-1.94;100.00
69751;BME280;57335;52.288;6.056;2023-02-15T03:17:07;102834.13;;;-1.83;100.00
69751;BME280;57335;52.288;6.056;2023-02-15T03:19:36;102825.69;;;-1.85;100.00
69751;BME280;57335;52.288;6.056;2023-02-15T03:22:06;102833.84;;;-1.76;100.00
69751;BME280;57335;52.288;6.056;2023-02-15T03:27:04;102824.34;;;-1.74;100.00
69751;BME280;57335;52.288;6.056;2023-02-15T03:29:33;102822.59;;;-1.74;100.00
69751;BME280;57335;52.288;6.056;2023-02-15T03:32:03;102812.53;;;-1.78;100.00
69751;BME280;57335;52.288;6.056;2023-02-15T03:34:32;102823.09;;;-1.67;100.00
69751;BME280;57335;52.288;6.056;2023-02-15T03:39:42;102807.56;;;-1.82;100.00
69751;BME280;57335;52.288;6.056;2023-02-15T03:42:19;102813.13;;;-1.73;100.00
69751;BME280;57335;52.288;6.056;2023-02-15T03:44:59;102810.13;;;-1.82;100.00
69751;BME280;57335;52.288;6.056;2023-02-15T03:47:31;102789.25;;;-1.93;100.00
69751;BME280;57335;52.288;6.056;2023-02-15T03:50:08;102802.94;;;-1.92;100.00
69751;BME280;57335;52.288;6.056;2023-02-15T03:52:36;102789.03;;;-2.06;100.00
69751;BME280;57335;52.288;6.056;2023-02-15T03:55:03;102784.88;;;-2.08;100.00
69751;BME280;57335;52.288;6.056;2023-02-15T03:57:30;102782.63;;;-2.14;100.00
69751;BME280;57335;52.288;6.056;2023-02-15T03:59:57;102793.03;;;-2.17;100.00
69751;BME280;57335;52.288;6.056;2023-02-15T04:02:26;102800.72;;;-2.17;100.00
69751;BME280;57335;52.288;6.056;2023-02-15T04:05:00;102799.00;;;-2.17;100.00
69751;BME280;57335;52.288;6.056;2023-02-15T04:07:26;102787.38;;;-2.24;100.00
69751;BME280;57335;52.288;6.056;2023-02-15T04:09:53;102789.94;;;-2.24;100.00
69751;BME280;57335;52.288;6.056;2023-02-15T04:12:19;102779.28;;;-2.34;100.00
69751;BME280;57335;52.288;6.056;2023-02-15T04:14:46;102779.03;;;-2.29;100.00
69751;BME280;57335;52.288;6.056;2023-02-15T04:17:12;102786.38;;;-2.22;100.00
69751;BME280;57335;52.288;6.056;2023-02-15T04:19:38;102785.63;;;-2.24;100.00
69751;BME280;57335;52.288;6.056;2023-02-15T04:22:05;102780.63;;;-2.27;100.00
69751;BME280;57335;52.288;6.056;2023-02-15T04:24:31;102781.59;;;-2.29;100.00
69751;BME280;57335;52.288;6.056;2023-02-15T04:26:58;102791.66;;;-2.25;100.00
69751;BME280;57335;52.288;6.056;2023-02-15T04:29:26;102790.81;;;-2.25;100.00
69751;BME280;57335;52.288;6.056;2023-02-15T04:31:53;102773.31;;;-2.34;100.00
69751;BME280;57335;52.288;6.056;2023-02-15T04:34:21;102777.28;;;-2.29;100.00
69751;BME280;57335;52.288;6.056;2023-02-15T04:36:47;102758.19;;;-2.41;100.00
69751;BME280;57335;52.288;6.056;2023-02-15T04:39:14;102774.13;;;-2.34;100.00
69751;BME280;57335;52.288;6.056;2023-02-15T04:41:41;102769.97;;;-2.36;100.00
69751;BME280;57335;52.288;6.056;2023-02-15T04:44:08;102772.63;;;-2.38;100.00
69751;BME280;57335;52.288;6.056;2023-02-15T04:46:34;102760.13;;;-2.46;100.00
69751;BME280;57335;52.288;6.056;2023-02-15T04:49:01;102778.56;;;-2.37;100.00
69751;BME280;57335;52.288;6.056;2023-02-15T04:51:28;102772.44;;;-2.35;100.00
69751;BME280;57335;52.288;6.056;2023-02-15T04:53:55;102761.66;;;-2.42;100.00
69751;BME280;57335;52.288;6.056;2023-02-15T04:56:21;102759.97;;;-2.43;100.00
69751;BME280;57335;52.288;6.056;2023-02-15T04:58:48;102752.66;;;-2.50;100.00
69751;BME280;57335;52.288;6.056;2023-02-15T05:01:14;102757.88;;;-2.52;100.00
69751;BME280;57335;52.288;6.056;2023-02-15T05:03:41;102756.81;;;-2.48;100.00
69751;BME280;57335;52.288;6.056;2023-02-15T05:06:07;102747.53;;;-2.50;100.00
69751;BME280;57335;52.288;6.056;2023-02-15T05:08:33;102741.78;;;-2.55;100.00
69751;BME280;57335;52.288;6.056;2023-02-15T05:11:00;102758.34;;;-2.44;100.00
69751;BME280;57335;52.288;6.056;2023-02-15T05:13:26;102754.31;;;-2.49;100.00
69751;BME280;57335;52.288;6.056;2023-02-15T05:15:53;102763.47;;;-2.44;100.00
69751;BME280;57335;52.288;6.056;2023-02-15T05:18:21;102758.56;;;-2.48;100.00
69751;BME280;57335;52.288;6.056;2023-02-15T05:20:48;102747.53;;;-2.50;100.00
69751;BME280;57335;52.288;6.056;2023-02-15T05:23:15;102737.56;;;-2.56;100.00
69751;BME280;57335;52.288;6.056;2023-02-15T05:25:49;102760.06;;;-2.44;100.00
69751;BME280;57335;52.288;6.056;2023-02-15T05:28:15;102739.38;;;-2.58;100.00
69751;BME280;57335;52.288;6.056;2023-02-15T05:30:42;102757.03;;;-2.52;100.00
69751;BME280;57335;52.288;6.056;2023-02-15T05:33:08;102740.31;;;-2.61;100.00
69751;BME280;57335;52.288;6.056;2023-02-15T05:35:35;102727.84;;;-2.69;100.00
69751;BME280;57335;52.288;6.056;2023-02-15T05:38:01;102747.91;;;-2.58;100.00
69751;BME280;57335;52.288;6.056;2023-02-15T05:40:28;102749.63;;;-2.58;100.00
69751;BME280;57335;52.288;6.056;2023-02-15T05:42:55;102743.00;;;-2.63;100.00
69751;BME280;57335;52.288;6.056;2023-02-15T05:45:22;102747.13;;;-2.60;100.00
69751;BME280;57335;52.288;6.056;2023-02-15T05:47:48;102724.63;;;-2.72;100.00
69751;BME280;57335;52.288;6.056;2023-02-15T05:50:15;102739.44;;;-2.60;100.00
69751;BME280;57335;52.288;6.056;2023-02-15T05:52:41;102734.66;;;-2.68;100.00
69751;BME280;57335;52.288;6.056;2023-02-15T05:55:08;102732.09;;;-2.68;100.00
69751;BME280;57335;52.288;6.056;2023-02-15T05:57:35;102738.00;;;-2.66;100.00
69751;BME280;57335;52.288;6.056;2023-02-15T06:00:03;102747.13;;;-2.60;100.00
69751;BME280;57335;52.288;6.056;2023-02-15T06:02:34;102740.69;;;-2.69;100.00
69751;BME280;57335;52.288;6.056;2023-02-15T06:05:01;102741.59;;;-2.70;100.00
69751;BME280;57335;52.288;6.056;2023-02-15T06:07:27;102738.41;;;-2.75;100.00
69751;BME280;57335;52.288;6.056;2023-02-15T06:09:54;102741.53;;;-2.68;100.00
69751;BME280;57335;52.288;6.056;2023-02-15T06:12:20;102745.06;;;-2.71;100.00
69751;BME280;57335;52.288;6.056;2023-02-15T06:14:47;102758.66;;;-2.69;100.00
69751;BME280;57335;52.288;6.056;2023-02-15T06:17:13;102752.28;;;-2.79;100.00
69751;BME280;57335;52.288;6.056;2023-02-15T06:26:41;102739.69;;;-2.84;100.00
69751;BME280;57335;52.288;6.056;2023-02-15T06:29:14;102758.13;;;-2.75;100.00
69751;BME280;57335;52.288;6.056;2023-02-15T06:31:47;102739.63;;;-2.82;100.00
69751;BME280;57335;52.288;6.056;2023-02-15T06:34:20;102747.31;;;-2.82;100.00
69751;BME280;57335;52.288;6.056;2023-02-15T06:36:46;102740.50;;;-2.83;100.00
69751;BME280;57335;52.288;6.056;2023-02-15T06:39:19;102743.69;;;-2.78;100.00
69751;BME280;57335;52.288;6.056;2023-02-15T06:41:45;102728.72;;;-2.87;100.00
69751;BME280;57335;52.288;6.056;2023-02-15T06:44:18;102746.97;;;-2.74;100.00
69751;BME280;57335;52.288;6.056;2023-02-15T06:46:44;102749.53;;;-2.74;100.00
69751;BME280;57335;52.288;6.056;2023-02-15T06:49:11;102751.03;;;-2.70;100.00
69751;BME280;57335;52.288;6.056;2023-02-15T06:51:44;102731.91;;;-2.82;100.00
69751;BME280;57335;52.288;6.056;2023-02-15T06:54:17;102752.69;;;-2.69;100.00
69751;BME280;57335;52.288;6.056;2023-02-15T06:56:43;102731.63;;;-2.76;100.00
69751;BME280;57335;52.288;6.056;2023-02-15T06:59:10;102738.13;;;-2.69;100.00
69751;BME280;57335;52.288;6.056;2023-02-15T07:01:43;102740.19;;;-2.58;100.00
69751;BME280;57335;52.288;6.056;2023-02-15T07:04:16;102730.81;;;-2.59;100.00
69751;BME280;57335;52.288;6.056;2023-02-15T07:06:49;102722.75;;;-2.51;100.00
69751;BME280;57335;52.288;6.056;2023-02-15T07:09:18;102728.03;;;-2.37;100.00
69751;BME280;57335;52.288;6.056;2023-02-15T07:11:51;102718.63;;;-2.36;100.00
69751;BME280;57335;52.288;6.056;2023-02-15T07:14:17;102728.19;;;-2.23;100.00
69751;BME280;57335;52.288;6.056;2023-02-15T07:16:50;102733.72;;;-2.13;100.00
69751;BME280;57335;52.288;6.056;2023-02-15T07:19:16;102726.38;;;-2.03;100.00
69751;BME280;57335;52.288;6.056;2023-02-15T07:21:49;102724.88;;;-1.90;100.00
69751;BME280;57335;52.288;6.056;2023-02-15T07:24:16;102717.28;;;-1.75;100.00
69751;BME280;57335;52.288;6.056;2023-02-15T07:26:49;102700.53;;;-1.67;100.00
69751;BME280;57335;52.288;6.056;2023-02-15T07:29:15;102698.75;;;-1.49;100.00
69751;BME280;57335;52.288;6.056;2023-02-15T07:31:48;102695.28;;;-1.32;100.00
69751;BME280;57335;52.288;6.056;2023-02-15T07:34:14;102705.41;;;-1.13;100.00
69751;BME280;57335;52.288;6.056;2023-02-15T07:36:50;102705.34;;;-0.95;100.00
69751;BME280;57335;52.288;6.056;2023-02-15T07:39:23;102697.00;;;-0.85;100.00
69751;BME280;57335;52.288;6.056;2023-02-15T07:41:49;102701.31;;;-0.69;100.00
69751;BME280;57335;52.288;6.056;2023-02-15T07:44:22;102693.06;;;-0.60;100.00
69751;BME280;57335;52.288;6.056;2023-02-15T07:46:55;102701.31;;;-0.39;100.00
69751;BME280;57335;52.288;6.056;2023-02-15T07:49:21;102688.66;;;-0.28;100.00
69751;BME280;57335;52.288;6.056;2023-02-15T07:51:54;102698.97;;;-0.13;100.00
69751;BME280;57335;52.288;6.056;2023-02-15T07:54:27;102683.06;;;-0.06;100.00
69751;BME280;57335;52.288;6.056;2023-02-15T07:56:53;102689.78;;;0.11;100.00
69751;BME280;57335;52.288;6.056;2023-02-15T07:59:26;102694.50;;;0.19;100.00
69751;BME280;57335;52.288;6.056;2023-02-15T08:01:52;102689.53;;;0.30;100.00
69751;BME280;57335;52.288;6.056;2023-02-15T08:04:25;102696.06;;;0.50;100.00
69751;BME280;57335;52.288;6.056;2023-02-15T08:06:52;102696.19;;;0.62;100.00
69751;BME280;57335;52.288;6.056;2023-02-15T08:09:25;102677.97;;;0.65;100.00
69751;BME280;57335;52.288;6.056;2023-02-15T08:11:51;102690.53;;;0.84;100.00
69751;BME280;57335;52.288;6.056;2023-02-15T08:14:24;102680.56;;;0.92;100.00
69751;BME280;57335;52.288;6.056;2023-02-15T08:16:51;102684.03;;;1.05;100.00
69751;BME280;57335;52.288;6.056;2023-02-15T08:19:29;102661.44;;;1.09;100.00
69751;BME280;57335;52.288;6.056;2023-02-15T08:22:06;102675.50;;;1.30;100.00
69751;BME280;57335;52.288;6.056;2023-02-15T08:24:35;102666.66;;;1.34;100.00
69751;BME280;57335;52.288;6.056;2023-02-15T08:27:10;102662.53;;;1.45;100.00
69751;BME280;57335;52.288;6.056;2023-02-15T08:29:37;102669.66;;;1.54;100.00
69751;BME280;57335;52.288;6.056;2023-02-15T08:32:12;102676.41;;;1.69;100.00
69751;BME280;57335;52.288;6.056;2023-02-15T08:34:45;102673.22;;;1.78;100.00
69751;BME280;57335;52.288;6.056;2023-02-15T08:37:11;102676.22;;;1.98;100.00
69751;BME280;57335;52.288;6.056;2023-02-15T08:39:44;102664.22;;;1.97;100.00
69751;BME280;57335;52.288;6.056;2023-02-15T08:42:10;102679.13;;;2.19;100.00
69751;BME280;57335;52.288;6.056;2023-02-15T08:44:36;102672.13;;;2.32;100.00
69751;BME280;57335;52.288;6.056;2023-02-15T08:47:09;102650.63;;;2.32;100.00
69751;BME280;57335;52.288;6.056;2023-02-15T08:49:42;102647.88;;;2.46;100.00
69751;BME280;57335;52.288;6.056;2023-02-15T08:52:08;102656.25;;;2.63;100.00
69751;BME280;57335;52.288;6.056;2023-02-15T08:54:41;102645.66;;;2.66;100.00
69751;BME280;57335;52.288;6.056;2023-02-15T08:57:14;102659.78;;;2.86;100.00
69751;BME280;57335;52.288;6.056;2023-02-15T08:59:40;102659.69;;;2.98;100.00
69751;BME280;57335;52.288;6.056;2023-02-15T09:02:13;102642.78;;;3.06;100.00
69751;BME280;57335;52.288;6.056;2023-02-15T09:04:39;102651.34;;;3.30;100.00
69751;BME280;57335;52.288;6.056;2023-02-15T09:07:12;102642.66;;;3.43;100.00
69751;BME280;57335;52.288;6.056;2023-02-15T09:09:38;102635.88;;;3.64;100.00
69751;BME280;57335;52.288;6.056;2023-02-15T09:12:11;102630.13;;;3.94;100.00
69751;BME280;57335;52.288;6.056;2023-02-15T09:14:44;102632.97;;;4.25;100.00
69751;BME280;57335;52.288;6.056;2023-02-15T09:17:10;102642.66;;;4.67;100.00
69751;BME280;57335;52.288;6.056;2023-02-15T09:19:43;102634.53;;;4.92;99.34
69751;BME280;57335;52.288;6.056;2023-02-15T09:22:16;102633.00;;;5.22;97.93
69751;BME280;57335;52.288;6.056;2023-02-15T09:24:49;102639.97;;;5.64;97.47
69751;BME280;57335;52.288;6.056;2023-02-15T09:27:22;102637.25;;;5.96;94.85
69751;BME280;57335;52.288;6.056;2023-02-15T09:29:55;102635.69;;;6.14;92.61
69751;BME280;57335;52.288;6.056;2023-02-15T09:32:28;102632.31;;;6.43;91.14
69751;BME280;57335;52.288;6.056;2023-02-15T09:35:01;102629.22;;;6.78;91.54
69751;BME280;57335;52.288;6.056;2023-02-15T09:37:27;102624.69;;;7.00;89.19
69751;BME280;57335;52.288;6.056;2023-02-15T09:39:53;102638.53;;;7.30;89.16
69751;BME280;57335;52.288;6.056;2023-02-15T09:45:42;102633.56;;;7.84;88.90
69751;BME280;57335;52.288;6.056;2023-02-15T09:50:59;102636.03;;;8.13;86.43
69751;BME280;57335;52.288;6.056;2023-02-15T09:53:58;102629.38;;;8.01;84.38
69751;BME280;57335;52.288;6.056;2023-02-15T09:56:49;102634.19;;;7.95;85.08
69751;BME280;57335;52.288;6.056;2023-02-15T09:59:35;102619.44;;;7.76;84.20
69751;BME280;57335;52.288;6.056;2023-02-15T10:02:11;102628.66;;;7.71;85.44
69751;BME280;57335;52.288;6.056;2023-02-15T10:05:18;102625.63;;;7.75;87.34
69751;BME280;57335;52.288;6.056;2023-02-15T10:10:54;102622.84;;;7.87;85.92
69751;BME280;57335;52.288;6.056;2023-02-15T10:13:39;102615.44;;;7.82;86.47
69751;BME280;57335;52.288;6.056;2023-02-15T10:16:32;102623.91;;;7.94;86.73
69751;BME280;57335;52.288;6.056;2023-02-15T10:19:27;102624.44;;;7.97;85.61
69751;BME280;57335;52.288;6.056;2023-02-15T10:22:26;102624.69;;;8.04;85.76
69751;BME280;57335;52.288;6.056;2023-02-15T10:25:26;102618.16;;;8.18;86.02
69751;BME280;57335;52.288;6.056;2023-02-15T10:27:54;102621.69;;;8.27;85.36
69751;BME280;57335;52.288;6.056;2023-02-15T10:33:01;102625.72;;;8.39;84.80
69751;BME280;57335;52.288;6.056;2023-02-15T10:35:57;102617.03;;;8.48;84.75
69751;BME280;57335;52.288;6.056;2023-02-15T10:38:35;102614.78;;;8.53;83.40
69751;BME280;57335;52.288;6.056;2023-02-15T10:41:36;102618.31;;;8.62;82.96
69751;BME280;57335;52.288;6.056;2023-02-15T10:44:32;102618.75;;;8.75;84.18
69751;BME280;57335;52.288;6.056;2023-02-15T10:48:03;102613.16;;;8.88;82.54
69751;BME280;57335;52.288;6.056;2023-02-15T10:50:48;102624.03;;;9.02;82.63
69751;BME280;57335;52.288;6.056;2023-02-15T10:53:52;102613.63;;;9.10;82.14
69751;BME280;57335;52.288;6.056;2023-02-15T10:59:21;102618.81;;;9.54;83.51
69751;BME280;57335;52.288;6.056;2023-02-15T11:02:03;102615.47;;;9.70;80.78
69751;BME280;57335;52.288;6.056;2023-02-15T11:07:25;102601.03;;;10.00;81.18
69751;BME280;57335;52.288;6.056;2023-02-15T11:10:01;102600.13;;;10.17;77.80
69751;BME280;57335;52.288;6.056;2023-02-15T11:12:38;102592.28;;;10.26;76.76
69751;BME280;57335;52.288;6.056;2023-02-15T11:15:26;102595.28;;;10.47;79.83
69751;BME280;57335;52.288;6.056;2023-02-15T11:18:08;102598.75;;;10.64;76.21
69751;BME280;57335;52.288;6.056;2023-02-15T11:21:02;102581.53;;;10.62;77.59
69751;BME280;57335;52.288;6.056;2023-02-15T11:23:43;102579.72;;;10.70;75.56
69751;BME280;57335;52.288;6.056;2023-02-15T11:26:19;102574.81;;;10.84;76.84
69751;BME280;57335;52.288;6.056;2023-02-15T11:29:13;102569.72;;;10.90;72.37
69751;BME280;57335;52.288;6.056;2023-02-15T11:31:46;102567.59;;;10.86;75.91
69751;BME280;57335;52.288;6.056;2023-02-15T11:34:31;102555.16;;;10.88;74.13
69751;BME280;57335;52.288;6.056;2023-02-15T11:37:03;102571.69;;;11.05;73.58
69751;BME280;57335;52.288;6.056;2023-02-15T11:39:37;102563.81;;;11.13;73.88
69751;BME280;57335;52.288;6.056;2023-02-15T11:42:14;102566.41;;;11.21;75.09
69751;BME280;57335;52.288;6.056;2023-02-15T11:45:04;102571.47;;;11.39;75.13
69751;BME280;57335;52.288;6.056;2023-02-15T11:47:40;102558.47;;;11.46;73.33
69751;BME280;57335;52.288;6.056;2023-02-15T11:50:14;102569.59;;;11.56;70.21
69751;BME280;57335;52.288;6.056;2023-02-15T11:52:52;102566.47;;;11.61;71.47
69751;BME280;57335;52.288;6.056;2023-02-15T11:55:22;102551.81;;;11.66;72.61
69751;BME280;57335;52.288;6.056;2023-02-15T11:58:04;102547.81;;;11.78;71.46
69751;BME280;57335;52.288;6.056;2023-02-15T12:00:40;102540.91;;;11.86;70.75
69751;BME280;57335;52.288;6.056;2023-02-15T12:03:22;102532.03;;;11.95;72.25
69751;BME280;57335;52.288;6.056;2023-02-15T12:05:56;102530.69;;;11.99;68.44
69751;BME280;57335;52.288;6.056;2023-02-15T12:08:42;102524.25;;;12.02;68.89
69751;BME280;57335;52.288;6.056;2023-02-15T12:11:15;102525.06;;;12.02;70.84
69751;BME280;57335;52.288;6.056;2023-02-15T12:13:58;102528.06;;;11.99;68.88
69751;BME280;57335;52.288;6.056;2023-02-15T12:16:57;102508.72;;;11.84;69.04
69751;BME280;57335;52.288;6.056;2023-02-15T12:19:36;102509.88;;;11.89;71.15
69751;BME280;57335;52.288;6.056;2023-02-15T12:22:04;102503.81;;;11.89;71.57
69751;BME280;57335;52.288;6.056;2023-02-15T12:24:45;102513.91;;;12.00;70.59
69751;BME280;57335;52.288;6.056;2023-02-15T12:27:18;102495.53;;;12.00;69.84
69751;BME280;57335;52.288;6.056;2023-02-15T12:30:13;102494.66;;;12.08;70.08
69751;BME280;57335;52.288;6.056;2023-02-15T12:32:52;102499.78;;;12.24;69.43
69751;BME280;57335;52.288;6.056;2023-02-15T12:35:35;102485.13;;;12.30;70.10
69751;BME280;57335;52.288;6.056;2023-02-15T12:38:26;102479.97;;;12.36;69.33
69751;BME280;57335;52.288;6.056;2023-02-15T12:41:21;102469.28;;;12.38;68.04
69751;BME280;57335;52.288;6.056;2023-02-15T12:43:46;102476.44;;;12.44;68.45
69751;BME280;57335;52.288;6.056;2023-02-15T12:46:23;102475.56;;;12.52;67.70
69751;BME280;57335;52.288;6.056;2023-02-15T12:49:14;102467.34;;;12.55;68.27
69751;BME280;57335;52.288;6.056;2023-02-15T12:51:51;102471.97;;;12.68;69.01
69751;BME280;57335;52.288;6.056;2023-02-15T12:54:32;102466.63;;;12.76;68.13
69751;BME280;57335;52.288;6.056;2023-02-15T12:57:26;102467.34;;;12.85;66.13
69751;BME280;57335;52.288;6.056;2023-02-15T13:00:00;102463.56;;;12.87;63.49
69751;BME280;57335;52.288;6.056;2023-02-15T13:02:46;102468.09;;;12.93;63.68
69751;BME280;57335;52.288;6.056;2023-02-15T13:07:55;102470.81;;;13.00;62.58
69751;BME280;57335;52.288;6.056;2023-02-15T13:12:58;102464.91;;;12.98;60.05
69751;BME280;57335;52.288;6.056;2023-02-15T13:18:05;102457.03;;;13.13;61.83
69751;BME280;57335;52.288;6.056;2023-02-15T13:20:36;102447.75;;;13.17;60.64
69751;BME280;57335;52.288;6.056;2023-02-15T13:23:29;102449.13;;;13.13;58.79
69751;BME280;57335;52.288;6.056;2023-02-15T13:26:11;102422.69;;;13.06;59.96
69751;BME280;57335;52.288;6.056;2023-02-15T13:28:50;102428.13;;;13.20;61.26
69751;BME280;57335;52.288;6.056;2023-02-15T13:31:27;102433.56;;;13.18;62.61
69751;BME280;57335;52.288;6.056;2023-02-15T13:34:00;102423.72;;;13.05;62.51
69751;BME280;57335;52.288;6.056;2023-02-15T13:55:44;102403.78;;;11.90;70.55
69751;BME280;57335;52.288;6.056;2023-02-15T14:01:11;102406.94;;;11.86;72.09
69751;BME280;57335;52.288;6.056;2023-02-15T14:04:07;102408.03;;;11.68;70.72
69751;BME280;57335;52.288;6.056;2023-02-15T14:07:16;102400.72;;;11.55;72.07
69751;BME280;57335;52.288;6.056;2023-02-15T14:13:52;102398.38;;;11.37;72.66
69751;BME280;57335;52.288;6.056;2023-02-15T14:16:45;102404.28;;;11.40;74.37
69751;BME280;57335;52.288;6.056;2023-02-15T14:19:39;102411.13;;;11.49;74.29
69751;BME280;57335;52.288;6.056;2023-02-15T14:27:56;102398.84;;;11.64;73.31
69751;BME280;57335;52.288;6.056;2023-02-15T14:30:39;102394.78;;;11.62;73.76
69751;BME280;57335;52.288;6.056;2023-02-15T14:35:48;102403.06;;;11.73;74.22
69751;BME280;57335;52.288;6.056;2023-02-15T14:44:21;102402.78;;;11.68;72.06
69751;BME280;57335;52.288;6.056;2023-02-15T14:49:32;102406.19;;;11.46;72.09